createdAt,value
2023-04-07T00:01:32.659Z,7.80
2023-04-07T00:04:01.138Z,7.80
2023-04-07T00:06:29.515Z,7.80
2023-04-07T00:08:57.450Z,7.70
2023-04-07T00:11:25.612Z,7.60
2023-04-07T00:13:53.663Z,7.60
2023-04-07T00:16:21.938Z,7.50
2023-04-07T00:18:51.330Z,7.50
2023-04-07T00:21:19.318Z,7.40
2023-04-07T00:23:47.681Z,7.40
2023-04-07T00:26:15.658Z,7.40
2023-04-07T00:28:43.596Z,7.30
2023-04-07T00:31:11.634Z,7.30
2023-04-07T00:33:39.576Z,7.30
2023-04-07T00:36:09.246Z,7.20
2023-04-07T00:38:37.234Z,7.20
2023-04-07T00:41:05.179Z,7.20
2023-04-07T00:43:33.170Z,7.20
2023-04-07T00:46:01.452Z,7.20
2023-04-07T00:48:29.828Z,7.20
2023-04-07T00:50:58.021Z,7.10
2023-04-07T00:53:27.444Z,7.10
2023-04-07T00:55:55.587Z,7.10
2023-04-07T00:58:23.513Z,7.10
2023-04-07T01:00:59.570Z,7.10
2023-04-07T01:03:32.620Z,7.10
2023-04-07T01:06:03.438Z,7.00
2023-04-07T01:08:43.794Z,7.00
2023-04-07T01:11:19.944Z,7.00
2023-04-07T01:13:50.853Z,6.90
2023-04-07T01:16:25.977Z,6.90
2023-04-07T01:18:58.413Z,6.90
2023-04-07T01:21:29.752Z,6.80
2023-04-07T01:24:17.737Z,6.80
2023-04-07T01:26:48.146Z,6.80
2023-04-07T01:29:35.695Z,6.80
2023-04-07T01:32:06.166Z,6.80
2023-04-07T01:34:35.683Z,6.80
2023-04-07T01:37:04.059Z,6.70
2023-04-07T01:39:33.592Z,6.70
2023-04-07T01:42:02.984Z,6.70
2023-04-07T01:44:34.208Z,6.60
2023-04-07T01:47:02.998Z,6.60
2023-04-07T01:49:33.039Z,6.60
2023-04-07T01:52:01.644Z,6.50
2023-04-07T01:54:30.302Z,6.40
2023-04-07T01:56:58.297Z,6.40
2023-04-07T01:59:26.637Z,6.40
2023-04-07T02:01:56.198Z,6.40
2023-04-07T02:04:32.156Z,6.40
2023-04-07T02:07:04.086Z,6.40
2023-04-07T02:09:34.308Z,6.40
2023-04-07T02:12:05.339Z,6.40
2023-04-07T02:14:34.350Z,6.40
2023-04-07T02:17:04.962Z,6.40
2023-04-07T02:19:34.739Z,6.40
2023-04-07T02:22:04.371Z,6.30
2023-04-07T02:24:32.317Z,6.40
2023-04-07T02:27:02.057Z,6.40
2023-04-07T02:29:30.147Z,6.40
2023-04-07T02:31:58.280Z,6.40
2023-04-07T02:34:27.716Z,6.40
2023-04-07T02:36:55.754Z,6.40
2023-04-07T02:39:23.737Z,6.30
2023-04-07T02:41:51.737Z,6.30
2023-04-07T02:44:19.703Z,6.30
2023-04-07T02:46:47.668Z,6.30
2023-04-07T02:49:15.696Z,6.30
2023-04-07T02:51:46.913Z,6.30
2023-04-07T02:54:14.890Z,6.30
2023-04-07T02:56:42.836Z,6.30
2023-04-07T02:59:10.782Z,6.30
2023-04-07T03:01:40.465Z,6.30
2023-04-07T03:04:08.713Z,6.30
2023-04-07T03:06:36.815Z,6.30
2023-04-07T03:09:06.679Z,6.20
2023-04-07T03:11:34.701Z,6.30
2023-04-07T03:14:02.688Z,6.20
2023-04-07T03:16:36.725Z,6.30
2023-04-07T03:19:04.691Z,6.30
2023-04-07T03:21:33.305Z,6.30
2023-04-07T03:24:01.204Z,6.30
2023-04-07T03:26:30.779Z,6.30
2023-04-07T03:28:58.738Z,6.30
2023-04-07T03:31:26.770Z,6.40
2023-04-07T03:33:54.854Z,6.40
2023-04-07T03:36:23.011Z,6.40
2023-04-07T03:38:51.450Z,6.40
2023-04-07T03:41:19.387Z,6.40
2023-04-07T03:43:48.669Z,6.40
2023-04-07T03:46:16.767Z,6.40
2023-04-07T03:48:44.731Z,6.40
2023-04-07T03:51:12.753Z,6.40
2023-04-07T03:53:40.886Z,6.40
2023-04-07T03:56:09.158Z,6.40
2023-04-07T03:58:37.133Z,6.40
2023-04-07T04:01:06.512Z,6.40
2023-04-07T04:03:34.572Z,6.40
2023-04-07T04:06:02.657Z,6.30
2023-04-07T04:08:31.088Z,6.30
2023-04-07T04:10:59.082Z,6.30
2023-04-07T04:13:27.175Z,6.30
2023-04-07T04:15:55.219Z,6.30
2023-04-07T04:18:24.621Z,6.30
2023-04-07T04:20:52.605Z,6.30
2023-04-07T04:23:20.579Z,6.30
2023-04-07T04:25:48.512Z,6.30
2023-04-07T04:28:16.638Z,6.40
2023-04-07T04:30:44.562Z,6.40
2023-04-07T04:33:12.556Z,6.30
2023-04-07T04:35:41.854Z,6.30
2023-04-07T04:38:09.870Z,6.30
2023-04-07T04:40:37.834Z,6.30
2023-04-07T04:43:07.048Z,6.30
2023-04-07T04:45:35.064Z,6.30
2023-04-07T04:48:03.161Z,6.30
2023-04-07T04:50:31.147Z,6.30
2023-04-07T04:53:00.512Z,6.30
2023-04-07T04:55:28.485Z,6.30
2023-04-07T04:57:56.906Z,6.30
2023-04-07T05:00:25.045Z,6.40
2023-04-07T05:02:53.225Z,6.40
2023-04-07T05:05:21.459Z,6.40
2023-04-07T05:07:49.532Z,6.30
2023-04-07T05:10:19.290Z,6.30
2023-04-07T05:12:47.386Z,6.20
2023-04-07T05:15:15.741Z,6.20
2023-04-07T05:17:43.781Z,6.10
2023-04-07T05:20:12.566Z,6.10
2023-04-07T05:22:40.517Z,6.10
2023-04-07T05:25:09.431Z,6.10
2023-04-07T05:27:38.801Z,6.30
2023-04-07T05:30:08.158Z,6.40
2023-04-07T05:32:36.119Z,6.60
2023-04-07T05:35:04.148Z,6.70
2023-04-07T05:37:32.141Z,6.80
2023-04-07T05:40:00.240Z,6.80
2023-04-07T05:42:28.233Z,6.90
2023-04-07T05:44:57.711Z,7.00
2023-04-07T05:47:26.043Z,7.10
2023-04-07T05:49:54.370Z,7.20
2023-04-07T05:52:22.361Z,7.20
2023-04-07T05:54:50.353Z,7.20
2023-04-07T05:57:18.440Z,7.10
2023-04-07T05:59:47.103Z,7.00
2023-04-07T06:02:16.598Z,7.00
2023-04-07T06:04:44.805Z,6.90
2023-04-07T06:07:12.766Z,6.90
2023-04-07T06:09:42.577Z,7.00
2023-04-07T06:12:12.307Z,7.00
2023-04-07T06:14:40.508Z,7.10
2023-04-07T06:17:08.539Z,7.10
2023-04-07T06:19:39.436Z,7.20
2023-04-07T06:22:07.375Z,7.20
2023-04-07T06:24:35.367Z,7.30
2023-04-07T06:27:03.716Z,7.40
2023-04-07T06:29:31.748Z,7.50
2023-04-07T06:31:59.794Z,7.60
2023-04-07T06:34:27.726Z,7.70
2023-04-07T06:36:58.202Z,7.80
2023-04-07T06:39:28.873Z,7.80
2023-04-07T06:41:57.750Z,7.80
2023-04-07T06:44:25.763Z,7.80
2023-04-07T06:46:55.519Z,7.90
2023-04-07T06:49:23.590Z,7.90
2023-04-07T06:51:51.517Z,7.80
2023-04-07T06:54:21.503Z,7.80
2023-04-07T06:56:49.498Z,7.80
2023-04-07T06:59:17.457Z,7.80
2023-04-07T07:01:46.419Z,7.90
2023-04-07T07:04:14.493Z,8.00
2023-04-07T07:06:42.600Z,8.10
2023-04-07T07:09:10.735Z,8.10
2023-04-07T07:11:41.147Z,8.10
2023-04-07T07:14:09.085Z,8.00
2023-04-07T07:16:37.282Z,8.00
2023-04-07T07:19:05.316Z,8.00
2023-04-07T07:21:33.236Z,8.00
2023-04-07T07:24:01.186Z,8.00
2023-04-07T07:26:29.198Z,8.10
2023-04-07T07:28:58.685Z,8.10
2023-04-07T07:31:26.708Z,8.20
2023-04-07T07:33:54.777Z,8.20
2023-04-07T07:36:22.768Z,8.30
2023-04-07T07:38:51.896Z,8.50
2023-04-07T07:41:19.855Z,8.60
2023-04-07T07:43:48.274Z,8.60
2023-04-07T07:46:17.932Z,8.70
2023-04-07T07:48:46.578Z,8.80
2023-04-07T07:51:14.593Z,8.90
2023-04-07T07:53:42.613Z,9.10
2023-04-07T07:56:10.873Z,9.30
2023-04-07T07:58:39.220Z,9.40
2023-04-07T08:01:07.283Z,9.50
2023-04-07T08:03:36.737Z,9.50
2023-04-07T08:06:05.037Z,9.40
2023-04-07T08:08:33.023Z,9.40
2023-04-07T08:11:01.232Z,9.40
2023-04-07T08:13:29.209Z,9.40
2023-04-07T08:15:57.336Z,9.50
2023-04-07T08:18:25.397Z,9.60
2023-04-07T08:20:54.709Z,9.70
2023-04-07T08:23:22.721Z,9.70
2023-04-07T08:25:51.192Z,9.60
2023-04-07T08:28:19.164Z,9.70
2023-04-07T08:30:47.143Z,9.70
2023-04-07T08:33:15.534Z,9.80
2023-04-07T08:35:43.527Z,9.90
2023-04-07T08:38:12.887Z,9.90
2023-04-07T08:40:40.887Z,10.00
2023-04-07T08:43:11.081Z,10.00
2023-04-07T08:45:42.137Z,10.00
2023-04-07T08:48:17.574Z,10.10
2023-04-07T08:50:46.758Z,10.20
2023-04-07T08:53:20.261Z,10.10
2023-04-07T08:55:48.280Z,10.10
2023-04-07T08:58:17.443Z,10.00
2023-04-07T09:00:49.184Z,9.90
2023-04-07T09:03:18.897Z,9.90
2023-04-07T09:05:47.440Z,9.80
2023-04-07T09:08:16.800Z,9.80
2023-04-07T09:10:44.817Z,9.90
2023-04-07T09:13:12.915Z,9.80
2023-04-07T09:15:41.489Z,9.80
2023-04-07T09:18:09.570Z,9.70
2023-04-07T09:20:57.768Z,9.60
2023-04-07T09:23:31.627Z,9.60
2023-04-07T09:26:03.135Z,9.50
2023-04-07T09:28:42.792Z,9.40
2023-04-07T09:31:10.849Z,9.30
2023-04-07T09:33:39.265Z,9.30
2023-04-07T09:36:07.913Z,9.30
2023-04-07T09:38:39.058Z,9.30
2023-04-07T09:41:08.831Z,9.20
2023-04-07T09:43:44.704Z,9.30
2023-04-07T09:46:15.483Z,9.40
2023-04-07T09:48:44.879Z,9.50
2023-04-07T09:51:14.344Z,9.60
2023-04-07T09:53:49.044Z,9.60
2023-04-07T09:56:18.965Z,9.80
2023-04-07T09:58:48.313Z,9.80
2023-04-07T10:01:17.960Z,9.90
2023-04-07T10:03:47.888Z,10.00
2023-04-07T10:06:16.541Z,9.90
2023-04-07T10:08:46.906Z,9.80
2023-04-07T10:11:18.030Z,9.80
2023-04-07T10:13:46.698Z,9.90
2023-04-07T10:16:15.125Z,9.90
2023-04-07T10:18:43.469Z,9.90
2023-04-07T10:21:15.201Z,9.90
2023-04-07T10:23:57.944Z,9.90
2023-04-07T10:26:31.398Z,9.90
2023-04-07T10:29:03.835Z,9.90
2023-04-07T10:31:32.227Z,9.90
2023-04-07T10:34:01.474Z,9.90
2023-04-07T10:36:29.609Z,9.80
2023-04-07T10:39:24.295Z,9.80
2023-04-07T10:41:53.259Z,9.70
2023-04-07T10:44:47.147Z,9.70
2023-04-07T10:47:15.320Z,9.70
2023-04-07T10:50:21.518Z,9.70
2023-04-07T10:52:50.563Z,9.90
2023-04-07T10:55:37.567Z,10.00
2023-04-07T10:58:16.200Z,10.10
2023-04-07T11:00:44.808Z,10.00
2023-04-07T11:03:14.315Z,10.10
2023-04-07T11:05:43.099Z,10.10
2023-04-07T11:08:11.430Z,10.10
2023-04-07T11:10:40.876Z,10.20
2023-04-07T11:13:10.357Z,10.20
2023-04-07T11:15:40.621Z,10.20
2023-04-07T11:18:20.248Z,10.10
2023-04-07T11:20:52.611Z,10.20
2023-04-07T11:23:23.057Z,10.20
2023-04-07T11:25:53.910Z,10.40
2023-04-07T11:28:21.880Z,10.50
2023-04-07T11:30:52.597Z,10.60
2023-04-07T11:33:22.608Z,10.60
2023-04-07T11:35:56.741Z,10.70
2023-04-07T11:38:26.150Z,10.80
2023-04-07T11:40:56.390Z,10.80
2023-04-07T11:43:25.680Z,10.80
2023-04-07T11:46:08.363Z,10.70
2023-04-07T11:48:37.791Z,10.60
2023-04-07T11:51:06.770Z,10.50
2023-04-07T11:53:37.967Z,10.40
2023-04-07T11:56:10.021Z,10.40
2023-04-07T11:58:38.776Z,10.30
2023-04-07T12:01:09.070Z,10.30
2023-04-07T12:03:39.037Z,10.30
2023-04-07T12:06:08.624Z,10.20
2023-04-07T12:08:41.383Z,10.00
2023-04-07T12:11:11.090Z,9.90
2023-04-07T12:13:39.686Z,9.90
2023-04-07T12:16:07.883Z,9.80
2023-04-07T12:18:36.562Z,9.80
2023-04-07T12:21:05.107Z,9.80
2023-04-07T12:23:33.130Z,9.80
2023-04-07T12:26:01.149Z,9.80
2023-04-07T12:28:30.649Z,9.90
2023-04-07T12:30:58.932Z,9.90
2023-04-07T12:33:27.006Z,10.00
2023-04-07T12:35:55.077Z,10.10
2023-04-07T12:38:23.080Z,10.20
2023-04-07T12:40:51.706Z,10.30
2023-04-07T12:43:19.705Z,10.40
2023-04-07T12:45:49.100Z,10.50
2023-04-07T12:48:18.703Z,10.50
2023-04-07T12:50:46.763Z,10.50
2023-04-07T12:53:14.760Z,10.40
2023-04-07T12:55:42.761Z,10.30
2023-04-07T12:58:10.758Z,10.20
2023-04-07T13:00:38.780Z,10.10
2023-04-07T13:03:08.351Z,10.10
2023-04-07T13:05:36.469Z,10.10
2023-04-07T13:08:04.603Z,10.00
2023-04-07T13:10:32.884Z,10.10
2023-04-07T13:13:01.059Z,10.20
2023-04-07T13:15:29.328Z,10.20
2023-04-07T13:17:57.312Z,10.30
2023-04-07T13:20:28.158Z,10.20
2023-04-07T13:25:28.816Z,10.30
2023-04-07T13:27:56.794Z,10.30
2023-04-07T13:30:24.818Z,10.20
2023-04-07T13:32:53.098Z,10.10
2023-04-07T13:35:21.442Z,10.10
2023-04-07T13:37:50.894Z,10.00
2023-04-07T13:40:19.004Z,10.00
2023-04-07T13:42:47.335Z,9.90
2023-04-07T13:45:15.473Z,9.90
2023-04-07T13:47:43.492Z,9.90
2023-04-07T13:50:11.895Z,9.90
2023-04-07T13:52:39.860Z,9.90
2023-04-07T13:55:10.471Z,9.90
2023-04-07T13:57:38.472Z,10.00
2023-04-07T14:00:08.413Z,10.00
2023-04-07T14:02:36.520Z,10.00
2023-04-07T14:05:04.606Z,10.00
2023-04-07T14:07:32.645Z,10.00
2023-04-07T14:10:00.625Z,9.90
2023-04-07T14:12:29.956Z,9.90
2023-04-07T14:14:57.939Z,9.80
2023-04-07T14:17:26.003Z,9.80
2023-04-07T14:19:54.141Z,9.80
2023-04-07T14:22:22.138Z,9.80
2023-04-07T14:24:50.112Z,9.80
2023-04-07T14:27:22.380Z,9.70
2023-04-07T14:29:51.690Z,9.80
2023-04-07T14:32:19.866Z,9.80
2023-04-07T14:34:47.900Z,9.80
2023-04-07T14:37:16.651Z,9.90
2023-04-07T14:39:55.275Z,9.90
2023-04-07T14:42:33.427Z,9.90
2023-04-07T14:45:02.851Z,9.90
2023-04-07T14:47:30.898Z,9.90
2023-04-07T14:49:58.894Z,9.80
2023-04-07T14:52:27.592Z,9.90
2023-04-07T14:54:56.027Z,9.90
2023-04-07T14:57:24.913Z,9.90
2023-04-07T14:59:52.884Z,10.00
2023-04-07T15:02:22.566Z,10.00
2023-04-07T15:04:50.767Z,10.00
2023-04-07T15:07:18.824Z,9.90
2023-04-07T15:09:48.736Z,10.00
2023-04-07T15:12:16.735Z,9.90
2023-04-07T15:14:45.917Z,9.80
2023-04-07T15:17:13.935Z,9.80
2023-04-07T15:19:44.165Z,9.70
2023-04-07T15:22:12.304Z,9.70
2023-04-07T15:24:40.335Z,9.60
2023-04-07T15:27:09.088Z,9.50
2023-04-07T15:29:37.320Z,9.50
2023-04-07T15:32:05.528Z,9.50
2023-04-07T15:34:33.645Z,9.50
2023-04-07T15:37:04.133Z,9.40
2023-04-07T15:39:32.209Z,9.40
2023-04-07T15:42:00.700Z,9.40
2023-04-07T15:44:28.745Z,9.40
2023-04-07T15:46:57.023Z,9.40
2023-04-07T15:49:26.216Z,9.30
2023-04-07T15:51:54.322Z,9.40
2023-04-07T15:54:23.730Z,9.30
2023-04-07T15:56:51.755Z,9.30
2023-04-07T15:59:19.740Z,9.30
2023-04-07T16:01:48.013Z,9.30
2023-04-07T16:04:16.296Z,9.40
2023-04-07T16:06:44.398Z,9.40
2023-04-07T16:09:12.374Z,9.40
2023-04-07T16:11:41.758Z,9.40
2023-04-07T16:14:09.752Z,9.40
2023-04-07T16:16:40.718Z,9.40
2023-04-07T16:19:09.931Z,9.40
2023-04-07T16:21:39.430Z,9.40
2023-04-07T16:24:07.431Z,9.40
2023-04-07T16:26:35.924Z,9.40
2023-04-07T16:29:05.341Z,9.40
2023-04-07T16:31:33.351Z,9.40
2023-04-07T16:34:01.788Z,9.40
2023-04-07T16:36:29.754Z,9.50
2023-04-07T16:38:57.706Z,9.40
2023-04-07T16:41:26.275Z,9.30
2023-04-07T16:43:54.224Z,9.30
2023-04-07T16:46:25.867Z,9.20
2023-04-07T16:48:53.987Z,9.20
2023-04-07T16:51:22.180Z,9.30
2023-04-07T16:53:50.287Z,9.30
2023-04-07T16:56:18.647Z,9.30
2023-04-07T16:58:46.965Z,9.30
2023-04-07T17:01:15.472Z,9.30
2023-04-07T17:03:45.025Z,9.30
2023-04-07T17:06:13.021Z,9.40
2023-04-07T17:08:41.017Z,9.40
2023-04-07T17:11:10.426Z,9.40
2023-04-07T17:13:40.107Z,9.40
2023-04-07T17:16:12.878Z,9.40
2023-04-07T17:18:40.956Z,9.40
2023-04-07T17:21:10.252Z,9.40
2023-04-07T17:23:38.345Z,9.40
2023-04-07T17:26:06.491Z,9.40
2023-04-07T17:28:34.540Z,9.40
2023-04-07T17:31:02.975Z,9.30
2023-04-07T17:33:31.176Z,9.30
2023-04-07T17:35:59.181Z,9.30
2023-04-07T17:38:28.557Z,9.30
2023-04-07T17:40:59.470Z,9.30
2023-04-07T17:43:27.460Z,9.30
2023-04-07T17:45:55.778Z,9.30
2023-04-07T17:48:23.877Z,9.30
2023-04-07T17:50:52.107Z,9.20
2023-04-07T17:53:20.661Z,9.10
2023-04-07T17:55:50.644Z,9.10
2023-04-07T17:58:20.110Z,9.10
2023-04-07T18:00:51.963Z,9.10
2023-04-07T18:03:20.165Z,9.10
2023-04-07T18:05:49.229Z,9.10
2023-04-07T18:08:18.096Z,9.10
2023-04-07T18:10:46.236Z,9.00
2023-04-07T18:13:15.584Z,9.00
2023-04-07T18:15:43.668Z,8.90
2023-04-07T18:18:11.673Z,8.90
2023-04-07T18:20:39.784Z,8.90
2023-04-07T18:23:08.286Z,8.90
2023-04-07T18:25:36.508Z,8.80
2023-04-07T18:28:04.564Z,8.80
2023-04-07T18:30:33.964Z,8.80
2023-04-07T18:33:01.990Z,8.90
2023-04-07T18:35:30.142Z,8.90
2023-04-07T18:37:59.145Z,8.90
2023-04-07T18:40:30.048Z,8.90
2023-04-07T18:42:59.158Z,8.90
2023-04-07T18:45:28.576Z,8.80
2023-04-07T18:47:58.987Z,8.80
2023-04-07T18:50:27.897Z,8.80
2023-04-07T18:52:56.678Z,8.80
2023-04-07T18:55:25.781Z,8.80
2023-04-07T18:57:54.764Z,8.80
2023-04-07T19:00:24.197Z,8.80
2023-04-07T19:02:52.405Z,8.80
2023-04-07T19:05:23.808Z,8.80
2023-04-07T19:07:53.636Z,8.80
2023-04-07T19:10:21.868Z,8.80
2023-04-07T19:12:49.897Z,8.80
2023-04-07T19:15:18.026Z,8.80
2023-04-07T19:17:46.091Z,8.70
2023-04-07T19:20:14.165Z,8.70
2023-04-07T19:22:43.987Z,8.60
2023-04-07T19:25:12.258Z,8.60
2023-04-07T19:27:40.981Z,8.60
2023-04-07T19:30:09.932Z,8.60
2023-04-07T19:32:39.468Z,8.60
2023-04-07T19:35:08.433Z,8.60
2023-04-07T19:37:37.826Z,8.60
2023-04-07T19:40:08.597Z,8.60
2023-04-07T19:42:36.748Z,8.70
2023-04-07T19:45:07.955Z,8.70
2023-04-07T19:47:38.203Z,8.70
2023-04-07T19:50:07.413Z,8.70
2023-04-07T19:52:35.521Z,8.60
2023-04-07T19:55:04.683Z,8.60
2023-04-07T19:57:34.983Z,8.60
2023-04-07T20:00:04.123Z,8.60
2023-04-07T20:02:32.280Z,8.60
2023-04-07T20:13:07.761Z,8.70
2023-04-07T20:20:13.401Z,8.60
2023-04-07T20:22:41.641Z,8.50
2023-04-07T20:25:09.723Z,8.60
2023-04-07T20:27:38.613Z,8.50
2023-04-07T20:30:08.970Z,8.50
2023-04-07T20:32:37.009Z,8.60
2023-04-07T20:35:05.398Z,8.60
2023-04-07T20:37:34.770Z,8.70
2023-04-07T20:40:04.052Z,8.70
2023-04-07T20:42:32.033Z,8.80
2023-04-07T20:45:03.804Z,8.80
2023-04-07T20:47:35.880Z,8.80
2023-04-07T20:50:04.156Z,8.80
2023-04-07T20:52:32.209Z,8.80
2023-04-07T20:55:01.649Z,8.70
2023-04-07T20:57:29.618Z,8.70
2023-04-07T20:59:57.596Z,8.70
2023-04-07T21:02:25.824Z,8.70
2023-04-07T21:04:53.980Z,8.70
2023-04-07T21:07:21.956Z,8.60
2023-04-07T21:09:50.163Z,8.60
2023-04-07T21:12:19.490Z,8.60
2023-04-07T21:14:47.432Z,8.60
2023-04-07T21:17:15.616Z,8.70
2023-04-07T21:19:43.591Z,8.60
2023-04-07T21:22:12.805Z,8.60
2023-04-07T21:24:40.966Z,8.60
2023-04-07T21:27:08.967Z,8.60
2023-04-07T21:29:40.249Z,8.70
2023-04-07T21:32:08.362Z,8.70
2023-04-07T21:34:36.353Z,8.60
2023-04-07T21:37:04.324Z,8.60
2023-04-07T21:39:34.032Z,8.60
2023-04-07T21:42:03.129Z,8.70
2023-04-07T21:44:31.731Z,8.60
2023-04-07T21:47:01.008Z,8.60
2023-04-07T21:49:28.948Z,8.60
2023-04-07T21:51:56.926Z,8.50
2023-04-07T21:54:25.869Z,8.50
2023-04-07T21:56:54.064Z,8.50
2023-04-07T21:59:22.275Z,8.50
2023-04-07T22:01:50.687Z,8.50
2023-04-07T22:04:20.165Z,8.50
2023-04-07T22:06:48.274Z,8.60
2023-04-07T22:09:16.264Z,8.60
2023-04-07T22:11:44.224Z,8.60
2023-04-07T22:14:12.209Z,8.50
2023-04-07T22:16:40.316Z,8.50
2023-04-07T22:19:08.355Z,8.50
2023-04-07T22:21:37.687Z,8.50
2023-04-07T22:24:05.939Z,8.50
2023-04-07T22:26:33.983Z,8.50
2023-04-07T22:29:01.944Z,8.50
2023-04-07T22:31:30.020Z,8.50
2023-04-07T22:33:58.053Z,8.40
2023-04-07T22:36:26.657Z,8.40
2023-04-07T22:38:56.409Z,8.40
2023-04-07T22:41:24.466Z,8.40
2023-04-07T22:43:52.417Z,8.40
2023-04-07T22:46:20.388Z,8.40
2023-04-07T22:48:49.192Z,8.40
2023-04-07T22:51:17.388Z,8.50
2023-04-07T22:53:45.389Z,8.50
2023-04-07T22:56:14.904Z,8.50
2023-04-07T22:58:42.917Z,8.50
2023-04-07T23:01:11.028Z,8.50
2023-04-07T23:03:39.230Z,8.50
2023-04-07T23:06:07.367Z,8.50
2023-04-07T23:08:35.415Z,8.50
2023-04-07T23:11:03.412Z,8.50
2023-04-07T23:13:33.211Z,8.50
2023-04-07T23:16:03.709Z,8.50
2023-04-07T23:18:31.835Z,8.40
2023-04-07T23:20:59.754Z,8.40
2023-04-07T23:23:27.739Z,8.40
2023-04-07T23:25:56.052Z,8.40
2023-04-07T23:28:24.036Z,8.40
2023-04-07T23:30:53.341Z,8.50
2023-04-07T23:33:21.360Z,8.50
2023-04-07T23:35:49.414Z,8.50
2023-04-07T23:38:17.465Z,8.50
2023-04-07T23:40:45.428Z,8.50
2023-04-07T23:43:13.391Z,8.60
2023-04-07T23:45:41.406Z,8.60
2023-04-07T23:48:10.814Z,8.70
2023-04-07T23:50:38.791Z,8.70
2023-04-07T23:53:06.797Z,8.70
2023-04-07T23:55:34.770Z,8.70
2023-04-07T23:58:02.911Z,8.60
